sensor_id;sensor_type;location;lat;lon;timestamp;P1;durP1;ratioP1;P2;durP2;ratioP2
69527;SDS011;57136;51.986;4.468;2023-02-15T00:01:12;72.43;;;33.33;;
69527;SDS011;57136;51.986;4.468;2023-02-15T00:03:39;65.70;;;31.90;;
69527;SDS011;57136;51.986;4.468;2023-02-15T00:06:05;63.83;;;31.05;;
69527;SDS011;57136;51.986;4.468;2023-02-15T00:08:31;66.93;;;32.33;;
69527;SDS011;57136;51.986;4.468;2023-02-15T00:11:03;63.20;;;30.35;;
69527;SDS011;57136;51.986;4.468;2023-02-15T00:13:32;63.55;;;31.33;;
69527;SDS011;57136;51.986;4.468;2023-02-15T00:16:01;62.65;;;30.95;;
69527;SDS011;57136;51.986;4.468;2023-02-15T00:18:28;55.60;;;28.33;;
69527;SDS011;57136;51.986;4.468;2023-02-15T00:20:54;60.50;;;29.88;;
69527;SDS011;57136;51.986;4.468;2023-02-15T00:23:20;73.22;;;33.38;;
69527;SDS011;57136;51.986;4.468;2023-02-15T00:25:45;64.20;;;30.80;;
69527;SDS011;57136;51.986;4.468;2023-02-15T00:28:10;63.85;;;30.55;;
69527;SDS011;57136;51.986;4.468;2023-02-15T00:30:35;60.58;;;31.35;;
69527;SDS011;57136;51.986;4.468;2023-02-15T00:33:01;70.32;;;34.63;;
69527;SDS011;57136;51.986;4.468;2023-02-15T00:35:26;66.75;;;33.13;;
69527;SDS011;57136;51.986;4.468;2023-02-15T00:37:52;69.43;;;33.33;;
69527;SDS011;57136;51.986;4.468;2023-02-15T00:40:32;71.13;;;36.10;;
69527;SDS011;57136;51.986;4.468;2023-02-15T00:42:57;68.45;;;33.97;;
69527;SDS011;57136;51.986;4.468;2023-02-15T00:45:35;70.28;;;33.00;;
69527;SDS011;57136;51.986;4.468;2023-02-15T00:48:01;67.88;;;32.20;;
69527;SDS011;57136;51.986;4.468;2023-02-15T00:50:27;69.22;;;33.22;;
69527;SDS011;57136;51.986;4.468;2023-02-15T00:52:52;69.55;;;33.03;;
69527;SDS011;57136;51.986;4.468;2023-02-15T00:55:18;66.57;;;33.17;;
69527;SDS011;57136;51.986;4.468;2023-02-15T00:57:43;78.10;;;36.88;;
69527;SDS011;57136;51.986;4.468;2023-02-15T01:00:08;77.93;;;36.30;;
69527;SDS011;57136;51.986;4.468;2023-02-15T01:02:34;70.55;;;34.05;;
69527;SDS011;57136;51.986;4.468;2023-02-15T01:05:00;77.97;;;36.38;;
69527;SDS011;57136;51.986;4.468;2023-02-15T01:07:25;74.25;;;35.75;;
69527;SDS011;57136;51.986;4.468;2023-02-15T01:09:51;68.80;;;32.53;;
69527;SDS011;57136;51.986;4.468;2023-02-15T01:12:16;74.10;;;34.47;;
69527;SDS011;57136;51.986;4.468;2023-02-15T01:14:43;74.20;;;33.05;;
69527;SDS011;57136;51.986;4.468;2023-02-15T01:17:08;67.72;;;34.00;;
69527;SDS011;57136;51.986;4.468;2023-02-15T01:19:34;76.82;;;35.67;;
69527;SDS011;57136;51.986;4.468;2023-02-15T01:21:59;81.30;;;36.90;;
69527;SDS011;57136;51.986;4.468;2023-02-15T01:24:24;77.90;;;36.03;;
69527;SDS011;57136;51.986;4.468;2023-02-15T01:26:49;74.03;;;35.08;;
69527;SDS011;57136;51.986;4.468;2023-02-15T01:29:15;73.63;;;36.53;;
69527;SDS011;57136;51.986;4.468;2023-02-15T01:31:40;72.45;;;33.53;;
69527;SDS011;57136;51.986;4.468;2023-02-15T01:34:05;74.97;;;34.20;;
69527;SDS011;57136;51.986;4.468;2023-02-15T01:36:32;79.32;;;36.50;;
69527;SDS011;57136;51.986;4.468;2023-02-15T01:39:04;75.32;;;37.83;;
69527;SDS011;57136;51.986;4.468;2023-02-15T01:41:30;75.07;;;36.10;;
69527;SDS011;57136;51.986;4.468;2023-02-15T01:43:57;82.85;;;37.28;;
69527;SDS011;57136;51.986;4.468;2023-02-15T01:46:38;69.15;;;32.72;;
69527;SDS011;57136;51.986;4.468;2023-02-15T01:49:11;71.25;;;34.28;;
69527;SDS011;57136;51.986;4.468;2023-02-15T01:51:40;75.40;;;33.38;;
69527;SDS011;57136;51.986;4.468;2023-02-15T01:54:11;69.60;;;32.00;;
69527;SDS011;57136;51.986;4.468;2023-02-15T01:56:52;74.95;;;35.55;;
69527;SDS011;57136;51.986;4.468;2023-02-15T01:59:23;63.10;;;32.42;;
69527;SDS011;57136;51.986;4.468;2023-02-15T02:01:49;68.03;;;32.08;;
69527;SDS011;57136;51.986;4.468;2023-02-15T02:04:25;60.75;;;32.05;;
69527;SDS011;57136;51.986;4.468;2023-02-15T02:06:54;60.53;;;31.08;;
69527;SDS011;57136;51.986;4.468;2023-02-15T02:09:19;69.22;;;32.13;;
69527;SDS011;57136;51.986;4.468;2023-02-15T02:11:45;68.85;;;33.13;;
69527;SDS011;57136;51.986;4.468;2023-02-15T02:14:13;64.43;;;31.85;;
69527;SDS011;57136;51.986;4.468;2023-02-15T02:22:02;68.00;;;32.92;;
69527;SDS011;57136;51.986;4.468;2023-02-15T02:27:48;71.88;;;33.55;;
69527;SDS011;57136;51.986;4.468;2023-02-15T02:30:40;67.53;;;31.88;;
69527;SDS011;57136;51.986;4.468;2023-02-15T02:44:21;65.47;;;32.42;;
69527;SDS011;57136;51.986;4.468;2023-02-15T02:49:40;67.72;;;32.75;;
69527;SDS011;57136;51.986;4.468;2023-02-15T02:55:07;68.75;;;31.75;;
69527;SDS011;57136;51.986;4.468;2023-02-15T02:57:34;72.63;;;33.28;;
69527;SDS011;57136;51.986;4.468;2023-02-15T03:00:02;68.93;;;34.38;;
69527;SDS011;57136;51.986;4.468;2023-02-15T03:02:32;71.28;;;33.03;;
69527;SDS011;57136;51.986;4.468;2023-02-15T03:07:33;68.38;;;31.60;;
69527;SDS011;57136;51.986;4.468;2023-02-15T03:10:02;69.45;;;32.20;;
69527;SDS011;57136;51.986;4.468;2023-02-15T03:12:31;69.95;;;33.22;;
69527;SDS011;57136;51.986;4.468;2023-02-15T03:15:18;71.93;;;32.25;;
69527;SDS011;57136;51.986;4.468;2023-02-15T03:17:47;59.78;;;29.73;;
69527;SDS011;57136;51.986;4.468;2023-02-15T03:22:53;68.47;;;34.20;;
69527;SDS011;57136;51.986;4.468;2023-02-15T03:25:44;69.10;;;31.98;;
69527;SDS011;57136;51.986;4.468;2023-02-15T03:28:13;61.28;;;29.58;;
69527;SDS011;57136;51.986;4.468;2023-02-15T03:30:44;62.90;;;31.73;;
69527;SDS011;57136;51.986;4.468;2023-02-15T03:33:15;59.22;;;28.60;;
69527;SDS011;57136;51.986;4.468;2023-02-15T03:35:45;53.58;;;26.88;;
69527;SDS011;57136;51.986;4.468;2023-02-15T03:38:20;63.42;;;30.35;;
69527;SDS011;57136;51.986;4.468;2023-02-15T03:40:51;61.85;;;30.58;;
69527;SDS011;57136;51.986;4.468;2023-02-15T03:49:05;62.00;;;31.15;;
69527;SDS011;57136;51.986;4.468;2023-02-15T03:51:32;64.68;;;32.58;;
69527;SDS011;57136;51.986;4.468;2023-02-15T03:54:12;69.90;;;32.55;;
69527;SDS011;57136;51.986;4.468;2023-02-15T03:56:59;66.80;;;33.47;;
69527;SDS011;57136;51.986;4.468;2023-02-15T03:59:44;61.30;;;30.10;;
69527;SDS011;57136;51.986;4.468;2023-02-15T04:02:30;66.80;;;31.90;;
69527;SDS011;57136;51.986;4.468;2023-02-15T04:05:03;72.43;;;32.00;;
69527;SDS011;57136;51.986;4.468;2023-02-15T04:07:28;65.63;;;31.27;;
69527;SDS011;57136;51.986;4.468;2023-02-15T04:09:54;68.15;;;31.70;;
69527;SDS011;57136;51.986;4.468;2023-02-15T04:12:38;69.13;;;29.83;;
69527;SDS011;57136;51.986;4.468;2023-02-15T04:15:03;59.50;;;30.38;;
69527;SDS011;57136;51.986;4.468;2023-02-15T04:20:13;58.17;;;28.33;;
69527;SDS011;57136;51.986;4.468;2023-02-15T04:22:57;55.15;;;28.00;;
69527;SDS011;57136;51.986;4.468;2023-02-15T04:25:41;51.35;;;26.75;;
69527;SDS011;57136;51.986;4.468;2023-02-15T04:28:06;54.30;;;27.33;;
69527;SDS011;57136;51.986;4.468;2023-02-15T04:30:32;64.05;;;28.33;;
69527;SDS011;57136;51.986;4.468;2023-02-15T04:32:58;61.15;;;30.77;;
69527;SDS011;57136;51.986;4.468;2023-02-15T04:35:23;64.03;;;31.25;;
69527;SDS011;57136;51.986;4.468;2023-02-15T04:37:48;67.40;;;29.48;;
69527;SDS011;57136;51.986;4.468;2023-02-15T04:40:14;59.38;;;30.00;;
69527;SDS011;57136;51.986;4.468;2023-02-15T04:42:40;60.58;;;29.63;;
69527;SDS011;57136;51.986;4.468;2023-02-15T04:45:06;56.33;;;27.75;;
69527;SDS011;57136;51.986;4.468;2023-02-15T04:47:32;53.78;;;27.70;;
69527;SDS011;57136;51.986;4.468;2023-02-15T04:49:57;75.85;;;33.20;;
69527;SDS011;57136;51.986;4.468;2023-02-15T04:52:23;64.93;;;30.60;;
69527;SDS011;57136;51.986;4.468;2023-02-15T04:54:48;66.53;;;31.98;;
69527;SDS011;57136;51.986;4.468;2023-02-15T04:57:16;64.00;;;31.80;;
69527;SDS011;57136;51.986;4.468;2023-02-15T04:59:42;65.13;;;30.88;;
69527;SDS011;57136;51.986;4.468;2023-02-15T05:02:07;78.72;;;34.45;;
69527;SDS011;57136;51.986;4.468;2023-02-15T05:04:32;71.05;;;32.65;;
69527;SDS011;57136;51.986;4.468;2023-02-15T05:06:58;71.15;;;31.73;;
69527;SDS011;57136;51.986;4.468;2023-02-15T05:09:23;64.22;;;32.10;;
69527;SDS011;57136;51.986;4.468;2023-02-15T05:11:48;71.63;;;32.72;;
69527;SDS011;57136;51.986;4.468;2023-02-15T05:14:14;71.68;;;31.95;;
69527;SDS011;57136;51.986;4.468;2023-02-15T05:16:39;74.13;;;34.80;;
69527;SDS011;57136;51.986;4.468;2023-02-15T05:19:05;67.50;;;33.28;;
69527;SDS011;57136;51.986;4.468;2023-02-15T05:21:31;74.10;;;33.75;;
69527;SDS011;57136;51.986;4.468;2023-02-15T05:23:56;78.03;;;35.05;;
69527;SDS011;57136;51.986;4.468;2023-02-15T05:26:23;77.93;;;35.22;;
69527;SDS011;57136;51.986;4.468;2023-02-15T05:29:08;69.53;;;34.40;;
69527;SDS011;57136;51.986;4.468;2023-02-15T05:31:34;67.85;;;32.88;;
69527;SDS011;57136;51.986;4.468;2023-02-15T05:34:00;67.90;;;31.17;;
69527;SDS011;57136;51.986;4.468;2023-02-15T05:36:26;66.53;;;32.35;;
69527;SDS011;57136;51.986;4.468;2023-02-15T05:38:53;65.00;;;31.63;;
69527;SDS011;57136;51.986;4.468;2023-02-15T05:41:18;63.80;;;32.13;;
69527;SDS011;57136;51.986;4.468;2023-02-15T05:43:43;68.93;;;31.02;;
69527;SDS011;57136;51.986;4.468;2023-02-15T05:46:09;70.82;;;32.78;;
69527;SDS011;57136;51.986;4.468;2023-02-15T05:48:35;68.60;;;33.55;;
69527;SDS011;57136;51.986;4.468;2023-02-15T05:51:02;65.65;;;32.08;;
69527;SDS011;57136;51.986;4.468;2023-02-15T05:53:33;68.50;;;31.67;;
69527;SDS011;57136;51.986;4.468;2023-02-15T05:56:00;68.80;;;32.65;;
69527;SDS011;57136;51.986;4.468;2023-02-15T05:58:28;68.30;;;31.00;;
69527;SDS011;57136;51.986;4.468;2023-02-15T06:00:55;74.55;;;32.30;;
69527;SDS011;57136;51.986;4.468;2023-02-15T06:03:21;68.25;;;32.47;;
69527;SDS011;57136;51.986;4.468;2023-02-15T06:05:47;67.40;;;30.95;;
69527;SDS011;57136;51.986;4.468;2023-02-15T06:08:15;70.38;;;32.35;;
69527;SDS011;57136;51.986;4.468;2023-02-15T06:10:40;63.17;;;31.15;;
69527;SDS011;57136;51.986;4.468;2023-02-15T06:13:05;73.38;;;32.97;;
69527;SDS011;57136;51.986;4.468;2023-02-15T06:15:31;68.10;;;32.13;;
69527;SDS011;57136;51.986;4.468;2023-02-15T06:17:57;74.50;;;33.83;;
69527;SDS011;57136;51.986;4.468;2023-02-15T06:20:22;64.70;;;31.42;;
69527;SDS011;57136;51.986;4.468;2023-02-15T06:22:47;64.13;;;30.30;;
69527;SDS011;57136;51.986;4.468;2023-02-15T06:25:13;72.78;;;33.50;;
69527;SDS011;57136;51.986;4.468;2023-02-15T06:27:40;64.38;;;30.85;;
69527;SDS011;57136;51.986;4.468;2023-02-15T06:30:07;63.20;;;30.58;;
69527;SDS011;57136;51.986;4.468;2023-02-15T06:32:34;77.18;;;34.83;;
69527;SDS011;57136;51.986;4.468;2023-02-15T06:34:59;77.53;;;33.25;;
69527;SDS011;57136;51.986;4.468;2023-02-15T06:37:26;82.25;;;35.03;;
69527;SDS011;57136;51.986;4.468;2023-02-15T06:39:51;74.25;;;34.80;;
69527;SDS011;57136;51.986;4.468;2023-02-15T06:42:21;77.18;;;35.15;;
69527;SDS011;57136;51.986;4.468;2023-02-15T06:44:46;83.40;;;37.03;;
69527;SDS011;57136;51.986;4.468;2023-02-15T06:47:13;76.25;;;36.00;;
69527;SDS011;57136;51.986;4.468;2023-02-15T06:49:38;86.82;;;36.45;;
69527;SDS011;57136;51.986;4.468;2023-02-15T06:52:04;78.75;;;36.17;;
69527;SDS011;57136;51.986;4.468;2023-02-15T06:54:29;75.97;;;35.85;;
69527;SDS011;57136;51.986;4.468;2023-02-15T06:56:55;81.25;;;35.05;;
69527;SDS011;57136;51.986;4.468;2023-02-15T06:59:20;75.80;;;36.90;;
69527;SDS011;57136;51.986;4.468;2023-02-15T07:01:46;77.50;;;35.38;;
69527;SDS011;57136;51.986;4.468;2023-02-15T07:04:11;73.88;;;34.38;;
69527;SDS011;57136;51.986;4.468;2023-02-15T07:06:36;75.57;;;33.47;;
69527;SDS011;57136;51.986;4.468;2023-02-15T07:09:02;75.28;;;33.72;;
69527;SDS011;57136;51.986;4.468;2023-02-15T07:11:29;73.68;;;33.38;;
69527;SDS011;57136;51.986;4.468;2023-02-15T07:16:39;79.00;;;33.10;;
69527;SDS011;57136;51.986;4.468;2023-02-15T07:19:04;80.30;;;38.30;;
69527;SDS011;57136;51.986;4.468;2023-02-15T07:21:30;68.05;;;34.25;;
69527;SDS011;57136;51.986;4.468;2023-02-15T07:23:56;78.10;;;35.92;;
69527;SDS011;57136;51.986;4.468;2023-02-15T07:26:22;76.13;;;37.25;;
69527;SDS011;57136;51.986;4.468;2023-02-15T07:28:48;82.05;;;36.72;;
69527;SDS011;57136;51.986;4.468;2023-02-15T07:31:13;80.60;;;38.67;;
69527;SDS011;57136;51.986;4.468;2023-02-15T07:33:38;83.45;;;38.50;;
69527;SDS011;57136;51.986;4.468;2023-02-15T07:36:04;86.80;;;41.20;;
69527;SDS011;57136;51.986;4.468;2023-02-15T07:38:34;88.63;;;39.78;;
69527;SDS011;57136;51.986;4.468;2023-02-15T07:41:01;86.55;;;39.63;;
69527;SDS011;57136;51.986;4.468;2023-02-15T07:43:35;90.82;;;39.97;;
69527;SDS011;57136;51.986;4.468;2023-02-15T07:46:03;84.07;;;41.22;;
69527;SDS011;57136;51.986;4.468;2023-02-15T07:48:33;92.55;;;38.00;;
69527;SDS011;57136;51.986;4.468;2023-02-15T07:51:00;83.40;;;40.30;;
69527;SDS011;57136;51.986;4.468;2023-02-15T07:53:26;91.95;;;40.53;;
69527;SDS011;57136;51.986;4.468;2023-02-15T07:55:52;83.85;;;38.80;;
69527;SDS011;57136;51.986;4.468;2023-02-15T07:58:20;85.43;;;39.25;;
69527;SDS011;57136;51.986;4.468;2023-02-15T08:01:06;88.97;;;41.22;;
69527;SDS011;57136;51.986;4.468;2023-02-15T08:03:31;88.63;;;39.17;;
69527;SDS011;57136;51.986;4.468;2023-02-15T08:05:57;92.95;;;38.55;;
69527;SDS011;57136;51.986;4.468;2023-02-15T08:08:24;93.85;;;42.75;;
69527;SDS011;57136;51.986;4.468;2023-02-15T08:13:57;98.53;;;43.97;;
69527;SDS011;57136;51.986;4.468;2023-02-15T08:16:29;90.50;;;42.30;;
69527;SDS011;57136;51.986;4.468;2023-02-15T08:18:57;99.30;;;42.58;;
69527;SDS011;57136;51.986;4.468;2023-02-15T08:21:24;101.10;;;44.00;;
69527;SDS011;57136;51.986;4.468;2023-02-15T08:23:52;94.68;;;44.67;;
69527;SDS011;57136;51.986;4.468;2023-02-15T08:26:18;95.93;;;44.88;;
69527;SDS011;57136;51.986;4.468;2023-02-15T08:28:44;95.45;;;45.47;;
69527;SDS011;57136;51.986;4.468;2023-02-15T08:31:11;98.93;;;44.28;;
69527;SDS011;57136;51.986;4.468;2023-02-15T08:33:39;98.20;;;44.67;;
69527;SDS011;57136;51.986;4.468;2023-02-15T08:36:06;99.57;;;45.40;;
69527;SDS011;57136;51.986;4.468;2023-02-15T08:38:36;102.07;;;46.05;;
69527;SDS011;57136;51.986;4.468;2023-02-15T08:41:09;103.20;;;45.67;;
69527;SDS011;57136;51.986;4.468;2023-02-15T08:43:39;112.63;;;45.08;;
69527;SDS011;57136;51.986;4.468;2023-02-15T08:46:05;100.53;;;47.10;;
69527;SDS011;57136;51.986;4.468;2023-02-15T08:48:31;98.30;;;43.97;;
69527;SDS011;57136;51.986;4.468;2023-02-15T08:50:56;103.88;;;47.58;;
69527;SDS011;57136;51.986;4.468;2023-02-15T08:53:22;104.13;;;48.53;;
69527;SDS011;57136;51.986;4.468;2023-02-15T08:55:54;100.63;;;47.17;;
69527;SDS011;57136;51.986;4.468;2023-02-15T08:58:21;108.00;;;49.03;;
69527;SDS011;57136;51.986;4.468;2023-02-15T09:00:46;99.60;;;45.22;;
69527;SDS011;57136;51.986;4.468;2023-02-15T09:03:12;107.68;;;49.30;;
69527;SDS011;57136;51.986;4.468;2023-02-15T09:05:37;103.97;;;48.33;;
69527;SDS011;57136;51.986;4.468;2023-02-15T09:08:02;98.50;;;48.45;;
69527;SDS011;57136;51.986;4.468;2023-02-15T09:10:28;97.95;;;46.90;;
69527;SDS011;57136;51.986;4.468;2023-02-15T09:12:53;89.15;;;47.25;;
69527;SDS011;57136;51.986;4.468;2023-02-15T09:15:18;92.57;;;47.42;;
69527;SDS011;57136;51.986;4.468;2023-02-15T09:17:44;92.10;;;48.13;;
69527;SDS011;57136;51.986;4.468;2023-02-15T09:20:09;92.80;;;47.38;;
69527;SDS011;57136;51.986;4.468;2023-02-15T09:22:35;91.25;;;46.33;;
69527;SDS011;57136;51.986;4.468;2023-02-15T09:25:00;78.15;;;41.47;;
69527;SDS011;57136;51.986;4.468;2023-02-15T09:27:26;66.20;;;37.20;;
69527;SDS011;57136;51.986;4.468;2023-02-15T09:29:51;68.55;;;35.72;;
69527;SDS011;57136;51.986;4.468;2023-02-15T09:32:16;64.63;;;34.25;;
69527;SDS011;57136;51.986;4.468;2023-02-15T09:34:43;63.53;;;34.30;;
69527;SDS011;57136;51.986;4.468;2023-02-15T09:37:08;66.03;;;34.70;;
69527;SDS011;57136;51.986;4.468;2023-02-15T09:39:34;62.70;;;32.22;;
69527;SDS011;57136;51.986;4.468;2023-02-15T09:42:10;61.50;;;31.88;;
69527;SDS011;57136;51.986;4.468;2023-02-15T09:58:35;51.75;;;29.27;;
69527;SDS011;57136;51.986;4.468;2023-02-15T10:07:09;55.10;;;30.27;;
69527;SDS011;57136;51.986;4.468;2023-02-15T10:13:06;54.72;;;28.63;;
69527;SDS011;57136;51.986;4.468;2023-02-15T10:21:10;50.97;;;29.50;;
69527;SDS011;57136;51.986;4.468;2023-02-15T10:23:52;53.25;;;30.15;;
69527;SDS011;57136;51.986;4.468;2023-02-15T10:26:46;57.20;;;31.42;;
69527;SDS011;57136;51.986;4.468;2023-02-15T10:32:40;52.38;;;30.70;;
69527;SDS011;57136;51.986;4.468;2023-02-15T10:34:47;61.10;;;31.08;;
69527;SDS011;57136;51.986;4.468;2023-02-15T10:44:00;52.53;;;29.52;;
69527;SDS011;57136;51.986;4.468;2023-02-15T10:46:26;54.17;;;29.88;;
69527;SDS011;57136;51.986;4.468;2023-02-15T10:49:08;56.03;;;29.38;;
69527;SDS011;57136;51.986;4.468;2023-02-15T11:02:17;53.95;;;28.83;;
69527;SDS011;57136;51.986;4.468;2023-02-15T11:05:15;51.88;;;30.90;;
69527;SDS011;57136;51.986;4.468;2023-02-15T11:07:53;47.08;;;28.02;;
69527;SDS011;57136;51.986;4.468;2023-02-15T11:10:26;55.22;;;29.38;;
69527;SDS011;57136;51.986;4.468;2023-02-15T11:13:03;54.38;;;30.23;;
69527;SDS011;57136;51.986;4.468;2023-02-15T11:15:35;58.05;;;28.92;;
69527;SDS011;57136;51.986;4.468;2023-02-15T11:20:56;53.78;;;29.33;;
69527;SDS011;57136;51.986;4.468;2023-02-15T11:23:26;54.65;;;31.63;;
69527;SDS011;57136;51.986;4.468;2023-02-15T11:26:14;55.13;;;29.60;;
69527;SDS011;57136;51.986;4.468;2023-02-15T11:28:48;53.80;;;30.50;;
69527;SDS011;57136;51.986;4.468;2023-02-15T11:31:20;53.30;;;29.95;;
69527;SDS011;57136;51.986;4.468;2023-02-15T11:33:50;59.45;;;31.25;;
69527;SDS011;57136;51.986;4.468;2023-02-15T11:36:25;55.00;;;29.67;;
69527;SDS011;57136;51.986;4.468;2023-02-15T11:38:58;55.22;;;30.88;;
69527;SDS011;57136;51.986;4.468;2023-02-15T11:41:31;56.38;;;30.38;;
69527;SDS011;57136;51.986;4.468;2023-02-15T11:46:36;49.67;;;29.60;;
69527;SDS011;57136;51.986;4.468;2023-02-15T11:49:02;51.75;;;29.50;;
69527;SDS011;57136;51.986;4.468;2023-02-15T11:51:27;55.80;;;29.13;;
69527;SDS011;57136;51.986;4.468;2023-02-15T11:53:54;50.95;;;28.20;;
69527;SDS011;57136;51.986;4.468;2023-02-15T11:56:24;51.53;;;28.33;;
69527;SDS011;57136;51.986;4.468;2023-02-15T11:59:27;49.08;;;27.67;;
69527;SDS011;57136;51.986;4.468;2023-02-15T12:02:01;53.45;;;28.05;;
69527;SDS011;57136;51.986;4.468;2023-02-15T12:07:09;49.30;;;29.00;;
69527;SDS011;57136;51.986;4.468;2023-02-15T12:09:46;53.78;;;29.08;;
69527;SDS011;57136;51.986;4.468;2023-02-15T12:14:55;43.67;;;26.37;;
69527;SDS011;57136;51.986;4.468;2023-02-15T12:17:32;48.60;;;28.63;;
69527;SDS011;57136;51.986;4.468;2023-02-15T12:20:04;46.08;;;27.30;;
69527;SDS011;57136;51.986;4.468;2023-02-15T12:22:49;50.08;;;28.17;;
69527;SDS011;57136;51.986;4.468;2023-02-15T12:25:33;47.22;;;27.77;;
69527;SDS011;57136;51.986;4.468;2023-02-15T12:28:02;43.67;;;27.33;;
69527;SDS011;57136;51.986;4.468;2023-02-15T12:30:32;46.70;;;26.98;;
69527;SDS011;57136;51.986;4.468;2023-02-15T12:36:03;52.10;;;27.48;;
69527;SDS011;57136;51.986;4.468;2023-02-15T12:38:36;47.08;;;27.40;;
69527;SDS011;57136;51.986;4.468;2023-02-15T12:41:05;45.00;;;28.13;;
69527;SDS011;57136;51.986;4.468;2023-02-15T12:43:47;47.38;;;26.90;;
69527;SDS011;57136;51.986;4.468;2023-02-15T12:46:29;51.70;;;29.75;;
69527;SDS011;57136;51.986;4.468;2023-02-15T12:49:05;46.30;;;27.58;;
69527;SDS011;57136;51.986;4.468;2023-02-15T12:52:34;47.33;;;28.35;;
69527;SDS011;57136;51.986;4.468;2023-02-15T12:54:35;53.33;;;29.15;;
69527;SDS011;57136;51.986;4.468;2023-02-15T12:57:22;49.88;;;29.02;;
69527;SDS011;57136;51.986;4.468;2023-02-15T13:02:46;51.90;;;28.00;;
69527;SDS011;57136;51.986;4.468;2023-02-15T13:07:59;55.45;;;28.88;;
69527;SDS011;57136;51.986;4.468;2023-02-15T13:10:36;51.28;;;28.33;;
69527;SDS011;57136;51.986;4.468;2023-02-15T13:13:10;44.92;;;26.77;;
69527;SDS011;57136;51.986;4.468;2023-02-15T13:15:46;47.53;;;26.65;;
69527;SDS011;57136;51.986;4.468;2023-02-15T13:18:26;49.97;;;26.67;;
69527;SDS011;57136;51.986;4.468;2023-02-15T13:20:56;48.33;;;26.90;;
69527;SDS011;57136;51.986;4.468;2023-02-15T13:23:29;48.10;;;26.60;;
69527;SDS011;57136;51.986;4.468;2023-02-15T13:25:57;48.65;;;26.73;;
69527;SDS011;57136;51.986;4.468;2023-02-15T13:28:31;47.47;;;27.13;;
69527;SDS011;57136;51.986;4.468;2023-02-15T13:31:05;49.78;;;26.42;;
69527;SDS011;57136;51.986;4.468;2023-02-15T13:33:38;50.88;;;26.02;;
69527;SDS011;57136;51.986;4.468;2023-02-15T13:36:15;52.17;;;26.33;;
69527;SDS011;57136;51.986;4.468;2023-02-15T13:38:55;50.17;;;25.50;;
69527;SDS011;57136;51.986;4.468;2023-02-15T13:41:53;49.33;;;25.67;;
69527;SDS011;57136;51.986;4.468;2023-02-15T13:50:19;45.53;;;25.40;;
69527;SDS011;57136;51.986;4.468;2023-02-15T14:06:37;48.33;;;27.98;;
69527;SDS011;57136;51.986;4.468;2023-02-15T14:17:45;49.03;;;27.35;;
69527;SDS011;57136;51.986;4.468;2023-02-15T14:25:57;44.42;;;26.25;;
69527;SDS011;57136;51.986;4.468;2023-02-15T14:28:37;49.42;;;26.80;;
69527;SDS011;57136;51.986;4.468;2023-02-15T14:31:13;46.75;;;25.58;;
69527;SDS011;57136;51.986;4.468;2023-02-15T14:33:41;44.03;;;24.67;;
69527;SDS011;57136;51.986;4.468;2023-02-15T14:36:15;46.10;;;26.33;;
69527;SDS011;57136;51.986;4.468;2023-02-15T14:38:56;45.72;;;25.42;;
69527;SDS011;57136;51.986;4.468;2023-02-15T14:41:37;48.30;;;25.33;;
69527;SDS011;57136;51.986;4.468;2023-02-15T14:47:07;46.85;;;24.40;;
69527;SDS011;57136;51.986;4.468;2023-02-15T14:49:47;45.22;;;24.73;;
69527;SDS011;57136;51.986;4.468;2023-02-15T14:52:12;49.20;;;26.63;;
69527;SDS011;57136;51.986;4.468;2023-02-15T15:02:25;46.40;;;25.75;;
69527;SDS011;57136;51.986;4.468;2023-02-15T15:05:20;42.10;;;23.98;;
69527;SDS011;57136;51.986;4.468;2023-02-15T15:07:58;47.00;;;25.48;;
69527;SDS011;57136;51.986;4.468;2023-02-15T15:10:32;46.25;;;25.17;;
69527;SDS011;57136;51.986;4.468;2023-02-15T15:16:24;51.00;;;25.45;;
69527;SDS011;57136;51.986;4.468;2023-02-15T15:18:49;51.78;;;27.38;;
69527;SDS011;57136;51.986;4.468;2023-02-15T15:24:34;51.05;;;26.08;;
69527;SDS011;57136;51.986;4.468;2023-02-15T15:32:44;48.72;;;27.02;;
69527;SDS011;57136;51.986;4.468;2023-02-15T15:38:03;53.17;;;27.60;;
69527;SDS011;57136;51.986;4.468;2023-02-15T15:49:19;52.67;;;29.30;;
69527;SDS011;57136;51.986;4.468;2023-02-15T15:51:46;46.38;;;26.95;;
69527;SDS011;57136;51.986;4.468;2023-02-15T15:54:14;52.97;;;27.38;;
69527;SDS011;57136;51.986;4.468;2023-02-15T15:56:43;54.33;;;28.88;;
69527;SDS011;57136;51.986;4.468;2023-02-15T15:59:14;66.57;;;30.77;;
69527;SDS011;57136;51.986;4.468;2023-02-15T16:01:44;51.88;;;28.80;;
69527;SDS011;57136;51.986;4.468;2023-02-15T16:04:22;50.78;;;28.52;;
69527;SDS011;57136;51.986;4.468;2023-02-15T16:06:50;55.05;;;30.25;;
69527;SDS011;57136;51.986;4.468;2023-02-15T16:09:17;55.88;;;30.45;;
69527;SDS011;57136;51.986;4.468;2023-02-15T16:11:55;59.53;;;30.98;;
69527;SDS011;57136;51.986;4.468;2023-02-15T16:16:57;54.63;;;29.77;;
69527;SDS011;57136;51.986;4.468;2023-02-15T16:19:36;58.15;;;30.08;;
69527;SDS011;57136;51.986;4.468;2023-02-15T16:22:07;58.92;;;30.83;;
69527;SDS011;57136;51.986;4.468;2023-02-15T16:30:16;59.97;;;32.03;;
69527;SDS011;57136;51.986;4.468;2023-02-15T16:32:48;59.70;;;31.42;;
69527;SDS011;57136;51.986;4.468;2023-02-15T16:35:15;57.60;;;30.77;;
69527;SDS011;57136;51.986;4.468;2023-02-15T16:37:44;61.60;;;31.45;;
69527;SDS011;57136;51.986;4.468;2023-02-15T16:42:51;62.08;;;31.52;;
69527;SDS011;57136;51.986;4.468;2023-02-15T16:45:20;61.75;;;33.83;;
69527;SDS011;57136;51.986;4.468;2023-02-15T16:47:50;62.78;;;31.70;;
69527;SDS011;57136;51.986;4.468;2023-02-15T16:50:22;59.30;;;29.77;;
69527;SDS011;57136;51.986;4.468;2023-02-15T16:52:49;62.30;;;32.08;;
69527;SDS011;57136;51.986;4.468;2023-02-15T16:58:14;57.88;;;30.30;;
69527;SDS011;57136;51.986;4.468;2023-02-15T17:00:43;51.75;;;30.23;;
69527;SDS011;57136;51.986;4.468;2023-02-15T17:05:45;51.95;;;29.25;;
69527;SDS011;57136;51.986;4.468;2023-02-15T17:13:23;49.00;;;27.40;;
69527;SDS011;57136;51.986;4.468;2023-02-15T17:20:53;47.85;;;24.80;;
69527;SDS011;57136;51.986;4.468;2023-02-15T17:23:25;46.53;;;23.55;;
69527;SDS011;57136;51.986;4.468;2023-02-15T17:25:51;53.72;;;25.55;;
69527;SDS011;57136;51.986;4.468;2023-02-15T17:28:22;53.08;;;27.75;;
69527;SDS011;57136;51.986;4.468;2023-02-15T17:30:53;56.55;;;26.95;;
69527;SDS011;57136;51.986;4.468;2023-02-15T17:33:35;55.80;;;27.50;;
69527;SDS011;57136;51.986;4.468;2023-02-15T17:38:36;48.15;;;25.67;;
69527;SDS011;57136;51.986;4.468;2023-02-15T17:41:04;50.45;;;25.40;;
69527;SDS011;57136;51.986;4.468;2023-02-15T17:43:30;45.80;;;24.65;;
69527;SDS011;57136;51.986;4.468;2023-02-15T17:45:56;45.75;;;24.25;;
69527;SDS011;57136;51.986;4.468;2023-02-15T17:48:29;48.50;;;24.73;;
69527;SDS011;57136;51.986;4.468;2023-02-15T17:50:57;48.47;;;25.55;;
69527;SDS011;57136;51.986;4.468;2023-02-15T17:53:27;43.65;;;24.70;;
69527;SDS011;57136;51.986;4.468;2023-02-15T17:55:52;45.92;;;25.33;;
69527;SDS011;57136;51.986;4.468;2023-02-15T17:58:18;45.53;;;23.67;;
69527;SDS011;57136;51.986;4.468;2023-02-15T18:00:45;54.92;;;25.27;;
69527;SDS011;57136;51.986;4.468;2023-02-15T18:03:50;51.92;;;25.60;;
69527;SDS011;57136;51.986;4.468;2023-02-15T18:06:37;51.13;;;25.73;;
69527;SDS011;57136;51.986;4.468;2023-02-15T18:09:23;57.65;;;26.67;;